Terminal Aerodrome Forecast
Issued by NWS

Home | Current Version | Previous Version | Text Only | Print | Product List | Glossary On
Versions: 1 2 3 4 5 6 7 8 9 10 11 12 13 14 15 16 17 18 19 20 21 22 23 24 25 26 27 28 29 30 31 32 33 34 35 36 37 38
000
FTUS45 KGJT 270532
TAFEGE
TAF
KEGE 270532Z 2706/2806 07004KT P6SM VCSH BKN060
      TEMPO 2707/2709 VRB10G20KT -SHRA BKN060
     FM270900 00000KT P6SM SCT080 BKN150
     FM271200 VRB03KT P6SM FEW150
     FM272000 25010G20KT P6SM VCSH SCT070 BKN100
     FM280300 09005KT P6SM FEW070 BKN140
      AMD LTD TO CLD VIS AND WIND TIL 271300=

USA.gov is the U.S. government's official web portal to all federal, state and local government web resources and services.